Time;durP1;ratioP1;P1;durP2;ratioP2;P2;SDS_P1;SDS_P2;PMS_P1;PMS_P2;Temp;Humidity;BMP_temperature;BMP_pressure;BME280_temperature;BME280_humidity;BME280_pressure;Samples;Min_cycle;Max_cycle;Signal;HPM_P1;HPM_P2
2022/01/28 00:00:13;;;;;;;30.92;4.03;;;;;;;;;;5008981;28;20608;-62
2022/01/28 00:05:17;;;;;;;37.75;4.13;;;;;;;;;;5038121;28;20501;-63
2022/01/28 00:07:43;;;;;;;32.47;3.33;;;;;;;;;;5013729;28;20037;-62
2022/01/28 00:10:09;;;;;;;34.60;3.53;;;;;;;;;;5009378;28;20499;-63
2022/01/28 00:12:45;;;;;;;29.50;3.65;;;;;;;;;;5022725;28;20481;-63
2022/01/28 00:15:21;;;;;;;28.77;3.28;;;;;;;;;;5036220;28;20145;-63
2022/01/28 00:18:25;;;;;;;31.17;4.15;;;;;;;;;;5009885;28;20050;-63
2022/01/28 00:37:26;;;;;;;23.00;2.38;;;;;;;;;;5008730;28;20052;-62
2022/01/28 00:39:52;;;;;;;24.17;2.72;;;;;;;;;;5009168;28;20113;-63
2022/01/28 00:42:18;;;;;;;27.48;2.58;;;;;;;;;;5022376;28;20117;-62
2022/01/28 00:44:44;;;;;;;27.65;3.63;;;;;;;;;;5005100;28;20393;-63
2022/01/28 00:47:10;;;;;;;25.38;3.17;;;;;;;;;;5008220;28;20145;-63
2022/01/28 00:49:37;;;;;;;30.60;3.88;;;;;;;;;;5021791;28;20124;-62
2022/01/28 00:52:03;;;;;;;28.50;3.30;;;;;;;;;;5037454;28;20088;-64
2022/01/28 00:54:29;;;;;;;25.73;3.05;;;;;;;;;;5037270;28;20120;-62
2022/01/28 00:56:55;;;;;;;26.77;3.00;;;;;;;;;;5012412;28;20327;-62
2022/01/28 00:59:21;;;;;;;30.42;3.88;;;;;;;;;;5010981;28;20050;-62
2022/01/28 01:01:47;;;;;;;24.50;3.03;;;;;;;;;;5012337;28;20687;-62
2022/01/28 01:04:13;;;;;;;28.13;3.00;;;;;;;;;;5011575;28;20046;-63
2022/01/28 01:06:40;;;;;;;30.08;3.78;;;;;;;;;;5014469;28;20061;-62
2022/01/28 01:09:06;;;;;;;30.02;3.70;;;;;;;;;;5041884;28;20038;-63
2022/01/28 01:11:32;;;;;;;32.08;4.63;;;;;;;;;;5010694;28;20052;-64
2022/01/28 01:13:59;;;;;;;39.50;5.45;;;;;;;;;;5015116;28;20037;-63
2022/01/28 01:16:41;;;;;;;33.17;4.38;;;;;;;;;;5011691;28;20451;-62
2022/01/28 01:21:41;;;;;;;41.95;6.07;;;;;;;;;;5013663;28;20128;-63
2022/01/28 01:24:09;;;;;;;38.38;5.30;;;;;;;;;;5041825;28;20073;-62
2022/01/28 01:26:38;;;;;;;38.75;4.82;;;;;;;;;;5010217;28;20141;-63
2022/01/28 01:29:07;;;;;;;35.60;4.60;;;;;;;;;;5025514;28;20077;-63
2022/01/28 01:31:35;;;;;;;37.80;4.65;;;;;;;;;;4995779;28;20030;-62
2022/01/28 01:34:10;;;;;;;30.52;3.35;;;;;;;;;;5011866;28;20463;-63
2022/01/28 01:36:37;;;;;;;26.83;3.00;;;;;;;;;;5012595;28;20041;-62
2022/01/28 01:39:03;;;;;;;22.00;3.65;;;;;;;;;;5013919;28;20065;-62
2022/01/28 01:41:37;;;;;;;27.55;3.55;;;;;;;;;;5014402;28;20030;-63
2022/01/28 01:44:08;;;;;;;31.17;3.28;;;;;;;;;;5016985;28;20077;-62
2022/01/28 01:47:11;;;;;;;22.65;3.28;;;;;;;;;;5023604;28;20068;-61
2022/01/28 01:52:14;;;;;;;24.17;3.10;;;;;;;;;;5007793;28;20584;-60
2022/01/28 01:54:42;;;;;;;24.23;3.30;;;;;;;;;;5016498;28;20033;-60
2022/01/28 01:57:10;;;;;;;32.97;3.95;;;;;;;;;;5044438;28;20043;-61
2022/01/28 01:59:37;;;;;;;29.80;4.10;;;;;;;;;;5013381;28;20046;-61
2022/01/28 02:02:04;;;;;;;27.08;3.45;;;;;;;;;;5012246;28;20076;-61
2022/01/28 02:04:30;;;;;;;32.35;3.88;;;;;;;;;;5003665;28;20042;-61
2022/01/28 02:06:57;;;;;;;29.85;3.75;;;;;;;;;;4994583;28;20046;-62
2022/01/28 02:09:23;;;;;;;32.60;4.25;;;;;;;;;;5013029;28;20052;-62
2022/01/28 02:11:49;;;;;;;33.28;4.00;;;;;;;;;;4997061;28;20038;-62
2022/01/28 02:14:15;;;;;;;32.58;3.85;;;;;;;;;;5010038;28;20050;-63
2022/01/28 02:16:41;;;;;;;29.52;3.55;;;;;;;;;;5044293;28;20069;-63
2022/01/28 02:19:08;;;;;;;39.95;5.07;;;;;;;;;;4994685;28;20124;-63
2022/01/28 02:21:39;;;;;;;39.92;5.32;;;;;;;;;;5013554;28;20610;-63
2022/01/28 02:24:06;;;;;;;34.88;4.65;;;;;;;;;;5007844;28;20427;-63
2022/01/28 02:26:37;;;;;;;28.17;3.75;;;;;;;;;;5014099;28;20131;-63
2022/01/28 02:29:10;;;;;;;32.63;4.10;;;;;;;;;;5014622;28;20045;-63
2022/01/28 02:31:36;;;;;;;33.17;4.85;;;;;;;;;;5036877;28;20084;-63
2022/01/28 02:34:04;;;;;;;31.67;5.18;;;;;;;;;;5010081;28;20042;-63
2022/01/28 02:36:31;;;;;;;34.72;4.25;;;;;;;;;;5026777;28;20056;-63
2022/01/28 02:39:01;;;;;;;34.55;5.10;;;;;;;;;;5010268;28;20046;-62
2022/01/28 02:41:32;;;;;;;36.08;5.40;;;;;;;;;;5015803;28;20050;-63
2022/01/28 02:44:45;;;;;;;42.88;5.63;;;;;;;;;;5009561;28;20046;-62
2022/01/28 02:47:00;;;;;;;28.40;3.95;;;;;;;;;;5011457;28;20049;-63
2022/01/28 02:49:32;;;;;;;33.22;4.53;;;;;;;;;;5009868;28;20508;-62
2022/01/28 02:51:59;;;;;;;33.95;4.20;;;;;;;;;;5014690;28;20116;-63
2022/01/28 02:54:25;;;;;;;28.90;4.18;;;;;;;;;;5009598;28;20499;-62
2022/01/28 02:56:57;;;;;;;24.98;3.75;;;;;;;;;;5042700;28;20050;-62
2022/01/28 02:59:23;;;;;;;28.98;3.63;;;;;;;;;;5009483;28;20072;-62
2022/01/28 03:01:49;;;;;;;21.05;2.42;;;;;;;;;;4993719;28;20496;-63
2022/01/28 03:05:04;;;;;;;23.45;3.08;;;;;;;;;;5009540;28;20049;-62
2022/01/28 03:07:08;;;;;;;21.10;3.22;;;;;;;;;;5009209;28;20038;-62
2022/01/28 03:09:50;;;;;;;26.65;3.40;;;;;;;;;;5011770;28;20097;-63
2022/01/28 03:12:19;;;;;;;25.55;3.25;;;;;;;;;;5009517;28;20053;-62
2022/01/28 03:18:09;;;;;;;18.92;2.30;;;;;;;;;;5042684;28;20062;-63
2022/01/28 03:22:46;;;;;;;28.60;3.72;;;;;;;;;;5014948;28;20293;-62
2022/01/28 03:25:13;;;;;;;20.40;3.17;;;;;;;;;;5015239;28;20061;-63
2022/01/28 03:27:50;;;;;;;25.10;3.30;;;;;;;;;;5012219;28;20050;-61
2022/01/28 03:30:16;;;;;;;21.98;2.97;;;;;;;;;;5010254;28;20104;-61
2022/01/28 03:32:42;;;;;;;22.67;3.00;;;;;;;;;;5011817;28;20038;-61
2022/01/28 03:35:10;;;;;;;28.50;3.47;;;;;;;;;;5011032;28;20488;-60
2022/01/28 03:37:36;;;;;;;24.83;3.72;;;;;;;;;;5011349;28;21070;-61
2022/01/28 03:40:06;;;;;;;25.02;3.58;;;;;;;;;;5011137;28;20480;-61
2022/01/28 03:42:32;;;;;;;32.97;3.95;;;;;;;;;;5042489;28;20041;-60
2022/01/28 03:44:58;;;;;;;26.60;4.03;;;;;;;;;;5042539;28;20041;-61
2022/01/28 03:47:24;;;;;;;34.42;4.30;;;;;;;;;;5026020;28;20049;-60
2022/01/28 03:49:50;;;;;;;31.27;4.32;;;;;;;;;;4993401;28;20108;-61
2022/01/28 03:52:16;;;;;;;30.80;4.03;;;;;;;;;;5011009;28;20389;-60
2022/01/28 03:54:42;;;;;;;36.05;5.35;;;;;;;;;;5009598;28;20053;-60
2022/01/28 03:57:08;;;;;;;38.20;5.50;;;;;;;;;;5025823;28;20120;-61
2022/01/28 03:59:35;;;;;;;29.90;3.78;;;;;;;;;;5009584;28;20077;-61
2022/01/28 04:02:01;;;;;;;30.77;4.10;;;;;;;;;;4994263;28;20101;-62
2022/01/28 04:05:26;;;;;;;35.65;4.85;;;;;;;;;;5018660;28;20073;-61
2022/01/28 04:12:46;;;;;;;33.47;4.60;;;;;;;;;;5036386;28;20049;-63
2022/01/28 04:15:47;;;;;;;30.67;3.95;;;;;;;;;;5024498;28;20053;-62
2022/01/28 04:18:10;;;;;;;30.65;4.30;;;;;;;;;;5041079;28;20554;-62
2022/01/28 04:20:36;;;;;;;29.35;4.15;;;;;;;;;;5008980;28;20124;-61
2022/01/28 04:23:02;;;;;;;31.45;4.47;;;;;;;;;;5009424;28;20044;-63
2022/01/28 04:25:28;;;;;;;27.02;3.97;;;;;;;;;;5040395;28;20390;-62
2022/01/28 04:27:54;;;;;;;35.25;4.32;;;;;;;;;;5041029;28;20388;-62
2022/01/28 04:30:21;;;;;;;30.80;4.03;;;;;;;;;;5039732;28;20045;-62
2022/01/28 04:32:49;;;;;;;29.33;4.10;;;;;;;;;;5009416;28;20147;-62
2022/01/28 04:35:15;;;;;;;27.52;3.72;;;;;;;;;;4995641;28;20046;-62
2022/01/28 04:37:59;;;;;;;28.00;3.78;;;;;;;;;;5008231;28;20038;-62
2022/01/28 04:40:33;;;;;;;35.05;4.30;;;;;;;;;;5008649;28;20099;-61
2022/01/28 04:58:27;;;;;;;36.25;4.60;;;;;;;;;;5013902;28;20042;-62
2022/01/28 05:06:32;;;;;;;35.92;5.70;;;;;;;;;;5007499;28;20353;-62
2022/01/28 05:09:24;;;;;;;45.42;5.38;;;;;;;;;;5036911;28;20045;-62
2022/01/28 05:23:18;;;;;;;38.17;4.72;;;;;;;;;;5008876;28;20447;-61
2022/01/28 05:25:47;;;;;;;27.20;3.40;;;;;;;;;;5034445;28;20056;-63
2022/01/28 05:28:17;;;;;;;28.90;3.28;;;;;;;;;;5020752;28;20045;-62
2022/01/28 05:30:43;;;;;;;24.95;3.60;;;;;;;;;;4991413;28;20069;-62
2022/01/28 05:33:09;;;;;;;28.90;3.60;;;;;;;;;;5023801;28;20056;-62
2022/01/28 05:35:35;;;;;;;29.58;3.42;;;;;;;;;;5007583;28;20120;-62
2022/01/28 05:38:01;;;;;;;32.83;4.70;;;;;;;;;;5008412;28;20041;-63
2022/01/28 05:40:27;;;;;;;32.55;5.13;;;;;;;;;;5011203;28;20038;-62
2022/01/28 05:42:53;;;;;;;27.42;4.18;;;;;;;;;;5011860;28;20316;-60
2022/01/28 05:45:19;;;;;;;35.33;4.32;;;;;;;;;;5043318;28;20046;-62
2022/01/28 05:47:46;;;;;;;37.58;5.45;;;;;;;;;;5010828;28;20030;-61
2022/01/28 05:50:12;;;;;;;30.35;4.32;;;;;;;;;;5014889;28;20077;-62
2022/01/28 05:52:38;;;;;;;34.25;4.60;;;;;;;;;;5000654;28;20048;-61
2022/01/28 05:55:04;;;;;;;39.03;4.72;;;;;;;;;;5011883;28;20113;-64
2022/01/28 05:57:30;;;;;;;25.33;3.70;;;;;;;;;;5017865;28;20037;-61
2022/01/28 05:59:57;;;;;;;35.95;4.65;;;;;;;;;;5043331;28;20104;-62
2022/01/28 06:02:23;;;;;;;32.20;4.97;;;;;;;;;;5011869;28;20072;-62
2022/01/28 06:04:49;;;;;;;31.38;4.70;;;;;;;;;;5026672;28;20037;-62
2022/01/28 06:07:15;;;;;;;41.88;5.57;;;;;;;;;;5025906;28;20045;-63
2022/01/28 06:09:41;;;;;;;39.60;5.43;;;;;;;;;;5015211;28;20037;-62
2022/01/28 06:12:08;;;;;;;37.67;5.00;;;;;;;;;;4996195;28;20041;-61
2022/01/28 06:14:34;;;;;;;29.42;3.58;;;;;;;;;;5045618;28;20045;-62
2022/01/28 06:17:00;;;;;;;27.08;4.15;;;;;;;;;;5013817;28;20038;-61
2022/01/28 06:19:27;;;;;;;26.73;3.72;;;;;;;;;;4994066;28;20081;-62
2022/01/28 06:21:53;;;;;;;32.58;3.75;;;;;;;;;;5014493;28;20085;-61
2022/01/28 06:24:19;;;;;;;34.97;3.88;;;;;;;;;;5014351;28;20092;-62
2022/01/28 06:26:45;;;;;;;31.33;3.85;;;;;;;;;;5042787;28;20053;-61
2022/01/28 06:29:12;;;;;;;26.10;3.85;;;;;;;;;;5043744;28;20053;-62
2022/01/28 06:31:39;;;;;;;30.38;4.03;;;;;;;;;;5043304;28;20046;-62
2022/01/28 06:34:05;;;;;;;29.85;3.58;;;;;;;;;;5013967;28;20044;-63
2022/01/28 06:36:31;;;;;;;26.15;4.38;;;;;;;;;;5012525;28;20044;-62
2022/01/28 06:38:57;;;;;;;24.90;3.00;;;;;;;;;;5011325;28;20050;-61
2022/01/28 06:41:23;;;;;;;25.20;3.08;;;;;;;;;;5010032;28;20392;-62
2022/01/28 06:43:49;;;;;;;27.08;2.75;;;;;;;;;;4993400;28;20046;-62
2022/01/28 06:46:15;;;;;;;28.60;3.63;;;;;;;;;;5009567;28;20050;-62
2022/01/28 06:48:41;;;;;;;26.15;3.47;;;;;;;;;;5009748;28;20043;-62
2022/01/28 06:51:07;;;;;;;31.48;3.65;;;;;;;;;;5010579;28;20045;-62
2022/01/28 06:53:33;;;;;;;26.30;3.45;;;;;;;;;;5041840;28;20045;-62
2022/01/28 06:55:59;;;;;;;27.10;3.95;;;;;;;;;;5010675;28;20034;-61
2022/01/28 06:58:25;;;;;;;27.30;4.00;;;;;;;;;;5010873;28;20038;-63
2022/01/28 07:00:52;;;;;;;26.30;2.92;;;;;;;;;;5042216;28;20061;-61
2022/01/28 07:03:18;;;;;;;30.35;3.72;;;;;;;;;;5042184;28;20361;-61
2022/01/28 07:05:44;;;;;;;29.65;3.47;;;;;;;;;;5016205;28;20080;-62
2022/01/28 07:08:10;;;;;;;28.48;4.00;;;;;;;;;;5042052;28;20464;-61
2022/01/28 07:10:36;;;;;;;32.63;3.50;;;;;;;;;;5015552;28;20099;-61
2022/01/28 07:13:03;;;;;;;28.45;4.03;;;;;;;;;;5025593;28;20042;-62
2022/01/28 07:15:29;;;;;;;27.98;4.03;;;;;;;;;;5016243;28;20116;-61
2022/01/28 07:17:57;;;;;;;33.55;3.90;;;;;;;;;;5010224;28;20044;-62
2022/01/28 07:20:23;;;;;;;35.83;4.00;;;;;;;;;;5024933;28;20041;-63
2022/01/28 07:22:49;;;;;;;36.53;4.10;;;;;;;;;;5008915;28;20052;-61
2022/01/28 07:25:15;;;;;;;29.25;4.30;;;;;;;;;;4994615;28;20538;-61
2022/01/28 07:27:42;;;;;;;32.47;3.97;;;;;;;;;;5025204;28;20037;-62
2022/01/28 07:30:09;;;;;;;34.25;4.15;;;;;;;;;;5010313;28;20038;-63
2022/01/28 07:32:35;;;;;;;30.42;3.45;;;;;;;;;;5025031;28;20042;-62
2022/01/28 07:35:01;;;;;;;32.47;3.78;;;;;;;;;;5009031;28;20121;-61
2022/01/28 07:37:27;;;;;;;32.58;4.43;;;;;;;;;;5008685;28;20042;-63
2022/01/28 07:39:54;;;;;;;29.13;3.20;;;;;;;;;;5025282;28;20086;-61
2022/01/28 07:42:20;;;;;;;27.42;3.10;;;;;;;;;;5009410;28;20079;-62
2022/01/28 07:44:46;;;;;;;29.10;3.55;;;;;;;;;;5010006;28;20507;-62
2022/01/28 07:47:12;;;;;;;29.67;3.83;;;;;;;;;;5008805;28;20037;-61
2022/01/28 07:49:38;;;;;;;29.25;3.17;;;;;;;;;;4992212;28;20512;-61
2022/01/28 07:52:05;;;;;;;29.65;3.75;;;;;;;;;;4992836;28;20026;-61
2022/01/28 07:54:31;;;;;;;38.33;4.30;;;;;;;;;;5025801;28;20057;-60
2022/01/28 07:56:58;;;;;;;37.40;4.07;;;;;;;;;;5017437;28;20523;-60
2022/01/28 07:59:24;;;;;;;28.90;4.15;;;;;;;;;;5009361;28;20050;-61
2022/01/28 08:01:50;;;;;;;31.30;4.05;;;;;;;;;;5018426;28;20042;-60
2022/01/28 08:04:16;;;;;;;36.40;3.92;;;;;;;;;;5008391;28;20041;-61
2022/01/28 08:06:42;;;;;;;32.33;3.88;;;;;;;;;;5009086;28;20045;-60
2022/01/28 08:09:08;;;;;;;38.70;5.07;;;;;;;;;;5008685;28;20123;-60
2022/01/28 08:11:34;;;;;;;37.80;4.07;;;;;;;;;;5010352;28;20030;-59
2022/01/28 08:14:02;;;;;;;36.33;4.13;;;;;;;;;;5008226;28;20073;-61
2022/01/28 08:16:28;;;;;;;41.55;4.78;;;;;;;;;;5008773;28;20045;-61
2022/01/28 08:18:55;;;;;;;36.45;4.22;;;;;;;;;;5009371;28;20388;-62
2022/01/28 08:21:21;;;;;;;35.47;4.00;;;;;;;;;;5009623;28;20484;-61
2022/01/28 08:23:47;;;;;;;36.45;4.93;;;;;;;;;;5031557;28;20141;-62
2022/01/28 08:26:13;;;;;;;34.22;4.35;;;;;;;;;;5022746;28;20124;-62
2022/01/28 08:28:41;;;;;;;29.15;4.30;;;;;;;;;;5005530;28;20042;-62
2022/01/28 08:31:08;;;;;;;28.25;3.65;;;;;;;;;;5023944;28;20045;-62
2022/01/28 08:33:34;;;;;;;40.60;3.85;;;;;;;;;;5025260;28;20037;-62
2022/01/28 08:36:01;;;;;;;38.75;4.18;;;;;;;;;;5014383;28;20393;-62
2022/01/28 08:38:35;;;;;;;37.78;4.43;;;;;;;;;;5014066;28;20471;-62
2022/01/28 08:41:01;;;;;;;36.97;4.80;;;;;;;;;;5017056;28;20054;-63
2022/01/28 08:43:28;;;;;;;37.08;4.78;;;;;;;;;;5007519;28;20046;-63
2022/01/28 08:45:54;;;;;;;37.63;3.97;;;;;;;;;;5004551;28;20498;-61
2022/01/28 08:48:20;;;;;;;35.55;4.03;;;;;;;;;;5011235;28;20058;-61
2022/01/28 08:50:46;;;;;;;35.65;4.25;;;;;;;;;;5019846;28;20037;-60
2022/01/28 08:53:13;;;;;;;36.95;4.90;;;;;;;;;;4993387;28;20116;-60
2022/01/28 08:55:39;;;;;;;38.80;4.05;;;;;;;;;;5040197;28;20455;-60
2022/01/28 08:58:08;;;;;;;30.00;4.07;;;;;;;;;;5023141;28;20169;-60
2022/01/28 09:00:35;;;;;;;36.17;4.57;;;;;;;;;;5016439;28;20037;-61
2022/01/28 09:03:01;;;;;;;33.08;4.75;;;;;;;;;;5007952;28;20114;-60
2022/01/28 09:05:28;;;;;;;37.22;5.55;;;;;;;;;;5024299;28;20124;-61
2022/01/28 09:07:55;;;;;;;39.67;5.35;;;;;;;;;;5039810;28;20107;-61
2022/01/28 09:10:25;;;;;;;47.55;6.07;;;;;;;;;;5008448;28;20518;-61
2022/01/28 09:15:30;;;;;;;42.42;5.50;;;;;;;;;;5008267;28;20045;-60
2022/01/28 09:17:57;;;;;;;35.78;4.97;;;;;;;;;;5012189;28;20472;-61
2022/01/28 09:20:24;;;;;;;30.83;4.65;;;;;;;;;;5044029;28;20480;-61
2022/01/28 09:22:50;;;;;;;37.08;4.82;;;;;;;;;;5012410;28;20030;-60
2022/01/28 09:25:16;;;;;;;39.25;4.63;;;;;;;;;;4995869;28;20492;-61
2022/01/28 09:27:42;;;;;;;36.38;4.30;;;;;;;;;;5012281;28;20050;-62
2022/01/28 09:30:08;;;;;;;36.47;4.65;;;;;;;;;;5012291;28;20046;-61
2022/01/28 09:32:35;;;;;;;36.22;4.70;;;;;;;;;;5012884;28;20125;-61
2022/01/28 09:35:02;;;;;;;37.28;4.68;;;;;;;;;;5012894;28;20118;-61
2022/01/28 09:37:28;;;;;;;39.85;5.00;;;;;;;;;;5010448;28;20041;-63
2022/01/28 09:39:54;;;;;;;39.63;5.53;;;;;;;;;;5011383;28;20045;-62
2022/01/28 09:42:26;;;;;;;34.75;5.05;;;;;;;;;;5008725;28;20041;-62
2022/01/28 09:44:54;;;;;;;32.13;4.63;;;;;;;;;;4992929;28;20049;-62
2022/01/28 09:47:22;;;;;;;32.38;4.70;;;;;;;;;;5022913;28;20068;-61
2022/01/28 09:49:48;;;;;;;34.97;4.35;;;;;;;;;;5017777;28;20045;-61
2022/01/28 09:52:14;;;;;;;34.97;4.38;;;;;;;;;;5024196;28;20045;-62
2022/01/28 09:54:46;;;;;;;35.03;4.63;;;;;;;;;;5009444;28;20045;-63
2022/01/28 09:57:12;;;;;;;36.90;4.90;;;;;;;;;;5041935;28;20400;-62
2022/01/28 09:59:38;;;;;;;37.17;4.57;;;;;;;;;;4992740;28;20045;-61
2022/01/28 10:02:05;;;;;;;30.50;5.07;;;;;;;;;;4993116;28;20408;-63
2022/01/28 10:04:31;;;;;;;34.53;4.28;;;;;;;;;;5009902;28;20123;-63
2022/01/28 10:06:58;;;;;;;29.63;4.47;;;;;;;;;;5010281;28;20030;-63
2022/01/28 10:09:24;;;;;;;32.35;5.05;;;;;;;;;;5007557;28;20046;-63
2022/01/28 10:11:54;;;;;;;29.13;3.85;;;;;;;;;;5024742;28;20550;-63
2022/01/28 10:14:24;;;;;;;24.02;3.30;;;;;;;;;;5008040;28;20053;-64
2022/01/28 10:17:00;;;;;;;30.20;3.80;;;;;;;;;;5007436;28;20090;-60
2022/01/28 10:19:27;;;;;;;30.98;4.35;;;;;;;;;;5025694;28;20518;-61
2022/01/28 10:21:53;;;;;;;29.10;4.22;;;;;;;;;;5025600;28;20033;-61
2022/01/28 10:24:19;;;;;;;29.52;4.10;;;;;;;;;;5009099;28;20121;-61
2022/01/28 10:26:45;;;;;;;32.03;3.78;;;;;;;;;;5008767;28;20045;-61
2022/01/28 10:29:14;;;;;;;32.45;3.92;;;;;;;;;;5007716;28;20099;-61
2022/01/28 10:31:58;;;;;;;36.08;4.03;;;;;;;;;;5045752;28;20103;-61
2022/01/28 10:34:25;;;;;;;29.10;4.28;;;;;;;;;;5042385;28;20554;-62
2022/01/28 10:36:51;;;;;;;22.38;3.35;;;;;;;;;;5008784;28;20200;-61
2022/01/28 10:39:20;;;;;;;22.80;3.58;;;;;;;;;;5010588;28;20049;-60
2022/01/28 10:41:50;;;;;;;26.60;3.22;;;;;;;;;;5012208;28;20042;-60
2022/01/28 10:44:16;;;;;;;32.47;3.80;;;;;;;;;;5010437;28;20088;-61
2022/01/28 10:46:50;;;;;;;30.45;3.75;;;;;;;;;;4993535;28;20125;-59
2022/01/28 10:49:16;;;;;;;30.38;3.78;;;;;;;;;;5025220;28;20526;-63
2022/01/28 10:51:43;;;;;;;26.65;3.92;;;;;;;;;;5009127;28;20042;-63
2022/01/28 10:54:11;;;;;;;26.90;3.42;;;;;;;;;;5008136;28;20088;-65
2022/01/28 10:56:47;;;;;;;27.45;3.35;;;;;;;;;;5007711;28;20048;-64
2022/01/28 10:59:15;;;;;;;24.38;3.42;;;;;;;;;;5008796;28;20096;-62
2022/01/28 11:01:42;;;;;;;27.15;3.30;;;;;;;;;;5008022;28;20610;-62
2022/01/28 11:04:08;;;;;;;27.98;4.22;;;;;;;;;;5007219;28;20048;-62
2022/01/28 11:06:34;;;;;;;30.05;3.70;;;;;;;;;;5025527;28;20121;-62
2022/01/28 11:09:01;;;;;;;33.58;4.05;;;;;;;;;;5009092;28;20475;-63
2022/01/28 11:11:27;;;;;;;20.75;2.78;;;;;;;;;;5023323;28;20046;-62
2022/01/28 11:13:53;;;;;;;26.65;3.53;;;;;;;;;;5025143;28;20042;-63
2022/01/28 11:16:19;;;;;;;22.05;3.13;;;;;;;;;;5044178;28;20144;-61
2022/01/28 11:18:47;;;;;;;27.63;3.33;;;;;;;;;;5040567;28;20053;-63
2022/01/28 11:21:16;;;;;;;23.65;2.60;;;;;;;;;;5024003;28;20073;-62
2022/01/28 11:23:53;;;;;;;26.92;3.13;;;;;;;;;;5006543;28;20051;-62
2022/01/28 11:26:22;;;;;;;25.23;2.88;;;;;;;;;;5006620;28;20054;-61
2022/01/28 11:28:50;;;;;;;21.83;3.55;;;;;;;;;;5006883;28;20042;-62
2022/01/28 11:31:36;;;;;;;26.27;3.55;;;;;;;;;;5023130;28;20046;-62
2022/01/28 11:34:13;;;;;;;27.63;3.38;;;;;;;;;;5006037;28;20132;-63
2022/01/28 11:36:40;;;;;;;23.35;2.40;;;;;;;;;;5007236;28;20502;-61
2022/01/28 11:39:18;;;;;;;25.45;3.83;;;;;;;;;;5006922;28;20056;-62
2022/01/28 11:42:03;;;;;;;18.25;2.40;;;;;;;;;;5039854;28;20045;-62
2022/01/28 11:45:05;;;;;;;22.05;2.97;;;;;;;;;;5005501;28;20039;-62
2022/01/28 11:47:35;;;;;;;23.52;2.85;;;;;;;;;;4966496;28;20126;-62
2022/01/28 11:50:15;;;;;;;22.65;2.90;;;;;;;;;;4978876;28;20129;-62
2022/01/28 11:52:45;;;;;;;19.35;2.75;;;;;;;;;;5040753;28;20388;-63
2022/01/28 11:55:14;;;;;;;22.88;3.10;;;;;;;;;;5005328;28;20052;-62
2022/01/28 11:57:59;;;;;;;17.20;2.20;;;;;;;;;;5007351;28;20415;-63
2022/01/28 12:00:45;;;;;;;27.40;2.45;;;;;;;;;;5006702;28;20077;-62
2022/01/28 12:03:22;;;;;;;25.23;2.97;;;;;;;;;;4989525;28;20508;-63
2022/01/28 12:05:48;;;;;;;22.45;2.85;;;;;;;;;;5005327;28;20049;-62
2022/01/28 12:08:15;;;;;;;23.70;3.10;;;;;;;;;;5006946;28;20184;-62
2022/01/28 12:10:46;;;;;;;27.73;3.08;;;;;;;;;;5007063;28;20045;-62
2022/01/28 12:13:15;;;;;;;22.70;2.70;;;;;;;;;;5023222;28;20037;-63
2022/01/28 12:15:58;;;;;;;27.98;3.55;;;;;;;;;;5039549;28;20037;-62
2022/01/28 12:18:25;;;;;;;32.53;3.65;;;;;;;;;;5004202;28;20642;-63
2022/01/28 12:20:52;;;;;;;23.25;2.55;;;;;;;;;;4987938;28;20045;-63
2022/01/28 12:23:18;;;;;;;24.10;3.08;;;;;;;;;;5021122;28;20467;-63
2022/01/28 12:25:45;;;;;;;25.35;3.13;;;;;;;;;;5004771;28;20054;-62
2022/01/28 12:28:12;;;;;;;31.70;3.17;;;;;;;;;;5021581;28;20080;-62
2022/01/28 12:30:39;;;;;;;22.55;2.78;;;;;;;;;;5006842;28;20038;-62
2022/01/28 12:33:05;;;;;;;20.80;2.65;;;;;;;;;;5038257;28;20041;-62
2022/01/28 12:35:31;;;;;;;28.25;3.63;;;;;;;;;;5006071;28;20081;-62
2022/01/28 12:38:02;;;;;;;26.90;3.80;;;;;;;;;;5020814;28;20511;-63
2022/01/28 12:40:35;;;;;;;21.10;2.47;;;;;;;;;;5006260;28;20042;-62
2022/01/28 12:43:01;;;;;;;22.70;2.47;;;;;;;;;;5006489;28;20030;-62
2022/01/28 12:45:28;;;;;;;26.05;2.72;;;;;;;;;;5004202;28;20335;-61
2022/01/28 12:47:54;;;;;;;18.48;2.80;;;;;;;;;;5038099;28;20038;-61
2022/01/28 12:50:20;;;;;;;27.83;3.33;;;;;;;;;;5036806;28;20120;-60
2022/01/28 12:52:47;;;;;;;21.50;2.72;;;;;;;;;;5036744;28;20049;-60
2022/01/28 12:55:13;;;;;;;21.92;2.33;;;;;;;;;;5004270;28;20050;-61
2022/01/28 12:57:43;;;;;;;21.70;3.15;;;;;;;;;;5004798;28;20041;-62
2022/01/28 13:00:10;;;;;;;20.38;2.63;;;;;;;;;;5004415;28;20120;-60
2022/01/28 13:02:36;;;;;;;22.48;2.85;;;;;;;;;;5004254;28;20099;-60
2022/01/28 13:10:26;;;;;;;24.15;2.85;;;;;;;;;;5036972;28;20042;-61
2022/01/28 13:12:52;;;;;;;22.75;2.50;;;;;;;;;;5038783;28;20069;-61
2022/01/28 13:15:19;;;;;;;22.15;2.47;;;;;;;;;;5037919;28;20088;-61
2022/01/28 13:17:56;;;;;;;24.48;3.15;;;;;;;;;;4988994;28;20046;-61
2022/01/28 13:20:23;;;;;;;27.95;2.95;;;;;;;;;;5004377;28;20162;-61
2022/01/28 13:22:50;;;;;;;26.50;2.65;;;;;;;;;;5020136;28;20049;-61
2022/01/28 13:25:20;;;;;;;28.98;2.80;;;;;;;;;;5036707;28;20052;-61
2022/01/28 13:27:48;;;;;;;22.38;2.75;;;;;;;;;;5006430;28;20053;-61
2022/01/28 13:30:15;;;;;;;18.50;2.00;;;;;;;;;;5007500;28;20115;-62
2022/01/28 13:32:47;;;;;;;17.40;2.15;;;;;;;;;;5007251;28;20130;-62
2022/01/28 13:35:16;;;;;;;23.20;2.92;;;;;;;;;;5006272;28;20096;-62
2022/01/28 13:37:43;;;;;;;21.13;2.78;;;;;;;;;;5019837;28;20132;-62
2022/01/28 13:40:19;;;;;;;22.50;2.88;;;;;;;;;;5003842;28;20480;-62
2022/01/28 13:43:03;;;;;;;28.20;2.95;;;;;;;;;;5004244;28;20052;-61
2022/01/28 13:45:34;;;;;;;25.38;2.50;;;;;;;;;;5005296;28;20546;-61
2022/01/28 13:48:01;;;;;;;16.67;2.20;;;;;;;;;;5020975;28;20053;-62
2022/01/28 13:50:32;;;;;;;24.92;3.20;;;;;;;;;;5004262;28;20042;-62
2022/01/28 13:53:19;;;;;;;19.55;2.55;;;;;;;;;;5002267;28;20037;-61
2022/01/28 13:55:46;;;;;;;20.00;2.40;;;;;;;;;;5005602;28;20143;-61
2022/01/28 13:58:12;;;;;;;18.90;2.38;;;;;;;;;;4987466;28;21462;-63
2022/01/28 14:00:57;;;;;;;18.17;2.00;;;;;;;;;;5005337;28;20084;-62
2022/01/28 14:03:27;;;;;;;19.33;2.22;;;;;;;;;;5023153;28;20512;-61
2022/01/28 14:05:57;;;;;;;17.95;1.83;;;;;;;;;;5007470;28;20053;-61
2022/01/28 14:08:38;;;;;;;20.05;2.40;;;;;;;;;;5010008;28;20038;-61
2022/01/28 14:11:21;;;;;;;19.45;2.42;;;;;;;;;;5009476;28;20042;-61
2022/01/28 14:14:07;;;;;;;21.73;3.30;;;;;;;;;;5008785;28;20065;-61
2022/01/28 14:16:33;;;;;;;22.90;2.80;;;;;;;;;;5006808;28;20072;-61
2022/01/28 14:18:59;;;;;;;22.30;2.40;;;;;;;;;;5007037;28;20045;-62
2022/01/28 14:21:26;;;;;;;17.20;2.33;;;;;;;;;;5008221;28;20088;-62
2022/01/28 14:23:52;;;;;;;21.45;2.63;;;;;;;;;;5006398;28;20038;-62
2022/01/28 14:26:19;;;;;;;18.77;2.17;;;;;;;;;;5041301;28;20511;-62
2022/01/28 14:31:25;;;;;;;24.70;2.33;;;;;;;;;;5022634;28;20038;-62
2022/01/28 14:33:51;;;;;;;19.58;2.05;;;;;;;;;;5008688;28;20121;-62
2022/01/28 14:36:18;;;;;;;25.90;2.05;;;;;;;;;;5008195;28;20041;-62
2022/01/28 14:38:47;;;;;;;19.92;2.47;;;;;;;;;;5008295;28;20747;-61
2022/01/28 14:41:13;;;;;;;25.15;2.92;;;;;;;;;;5039509;28;20046;-61
2022/01/28 14:43:40;;;;;;;17.25;2.10;;;;;;;;;;5008318;28;20045;-61
2022/01/28 14:46:06;;;;;;;24.85;3.10;;;;;;;;;;5006079;28;20041;-61
2022/01/28 14:48:32;;;;;;;23.83;2.50;;;;;;;;;;5006508;28;20049;-61
2022/01/28 14:50:59;;;;;;;21.70;2.50;;;;;;;;;;5007982;28;21253;-61
2022/01/28 14:53:25;;;;;;;26.00;3.08;;;;;;;;;;5007263;28;20448;-61
2022/01/28 14:55:51;;;;;;;18.67;2.50;;;;;;;;;;5006659;28;20037;-61
2022/01/28 14:58:17;;;;;;;24.48;2.67;;;;;;;;;;5040253;28;20053;-61
2022/01/28 15:00:43;;;;;;;24.02;2.95;;;;;;;;;;5008024;28;20519;-60
2022/01/28 15:03:10;;;;;;;23.20;2.55;;;;;;;;;;5007938;28;20113;-60
2022/01/28 15:05:37;;;;;;;23.80;2.83;;;;;;;;;;5007066;28;20112;-63
2022/01/28 15:08:08;;;;;;;21.10;2.65;;;;;;;;;;5006533;28;20116;-62
2022/01/28 15:10:34;;;;;;;19.65;2.15;;;;;;;;;;5040485;28;20092;-59
2022/01/28 15:13:00;;;;;;;16.33;1.77;;;;;;;;;;5040641;28;20451;-61
2022/01/28 15:15:26;;;;;;;15.80;1.67;;;;;;;;;;5007772;28;20049;-61
2022/01/28 15:17:53;;;;;;;21.98;2.70;;;;;;;;;;5004305;28;20193;-63
2022/01/28 15:20:19;;;;;;;24.05;2.25;;;;;;;;;;5005017;28;20044;-62
2022/01/28 15:22:45;;;;;;;27.65;3.30;;;;;;;;;;5021211;28;20101;-63
2022/01/28 15:25:11;;;;;;;27.17;2.90;;;;;;;;;;5037729;28;20520;-63
2022/01/28 15:27:39;;;;;;;21.23;3.00;;;;;;;;;;5005449;28;20057;-63
2022/01/28 15:30:26;;;;;;;20.73;2.33;;;;;;;;;;5005362;28;20038;-63
2022/01/28 15:38:12;;;;;;;23.63;2.38;;;;;;;;;;5037492;28;20153;-62
2022/01/28 15:40:38;;;;;;;23.92;2.50;;;;;;;;;;5023300;28;20495;-62
2022/01/28 15:43:04;;;;;;;19.42;2.42;;;;;;;;;;5039399;28;20056;-63
2022/01/28 15:45:31;;;;;;;19.60;2.22;;;;;;;;;;5006528;28;20470;-64
2022/01/28 15:47:58;;;;;;;21.92;2.45;;;;;;;;;;5038311;28;20053;-63
2022/01/28 15:50:25;;;;;;;17.45;2.17;;;;;;;;;;5006260;28;20038;-62
2022/01/28 15:52:52;;;;;;;25.83;2.35;;;;;;;;;;5038741;28;20042;-62
2022/01/28 15:55:18;;;;;;;22.30;2.67;;;;;;;;;;5039052;28;20064;-63
2022/01/28 15:57:44;;;;;;;18.73;2.28;;;;;;;;;;5004194;28;20132;-63
2022/01/28 16:00:11;;;;;;;18.25;2.60;;;;;;;;;;5038513;28;20056;-63
2022/01/28 16:02:37;;;;;;;24.92;2.42;;;;;;;;;;5005325;28;20046;-61